Time;durP1;ratioP1;P1;durP2;ratioP2;P2;SDS_P1;SDS_P2;PMS_P1;PMS_P2;Temp;Humidity;BMP_temperature;BMP_pressure;BME280_temperature;BME280_humidity;BME280_pressure;Samples;Min_cycle;Max_cycle;Signal;HPM_P1;HPM_P2
2023/04/14 00:01:42;;;;;;;0.82;0.82;;;;;;;10.33;52.11;100290.47;6369917;23;20021;-84
2023/04/14 00:04:13;;;;;;;0.30;0.30;;;;;;;10.28;51.90;100289.78;6371602;23;20091;-84
2023/04/14 00:06:43;;;;;;;0.30;0.30;;;;;;;10.22;52.46;100289.97;6370347;23;20036;-86
2023/04/14 00:09:14;;;;;;;0.30;0.30;;;;;;;10.17;52.45;100289.25;6373689;23;20058;-83
2023/04/14 00:11:44;;;;;;;0.20;0.20;;;;;;;10.18;52.13;100301.47;6371401;23;20072;-85
2023/04/14 00:14:15;;;;;;;0.68;0.68;;;;;;;10.18;52.99;100290.97;6371055;23;20512;-86
2023/04/14 00:16:45;;;;;;;0.30;0.30;;;;;;;10.16;51.81;100287.53;6399850;23;20537;-85
2023/04/14 00:19:16;;;;;;;0.40;0.40;;;;;;;10.12;52.47;100285.94;6371324;23;20000;-85
2023/04/14 00:21:46;;;;;;;0.43;0.43;;;;;;;10.15;52.83;100291.94;6369751;23;20044;-85
2023/04/14 00:24:17;;;;;;;0.22;0.22;;;;;;;10.06;52.93;100300.09;6372616;23;20017;-86
2023/04/14 00:26:47;;;;;;;0.50;0.50;;;;;;;10.12;52.63;100293.81;6369445;23;20032;-85
2023/04/14 00:29:18;;;;;;;0.30;0.30;;;;;;;10.07;52.55;100294.78;6370812;23;20028;-85
2023/04/14 00:31:48;;;;;;;0.40;0.40;;;;;;;9.99;52.13;100291.56;6367638;23;20028;-85
2023/04/14 00:34:18;;;;;;;0.30;0.30;;;;;;;9.94;52.71;100290.84;6370384;23;20012;-86
2023/04/14 00:36:49;;;;;;;0.30;0.30;;;;;;;9.89;52.30;100297.97;6391438;23;20027;-85
2023/04/14 00:39:20;;;;;;;0.30;0.30;;;;;;;9.96;53.00;100298.66;6371001;23;20012;-85
2023/04/14 00:41:50;;;;;;;0.50;0.50;;;;;;;9.92;52.62;100303.16;6368265;23;20226;-84
2023/04/14 00:44:22;;;;;;;3.10;1.17;;;;;;;9.84;52.59;100305.97;6380099;23;20009;-86
2023/04/14 00:46:53;;;;;;;1.63;1.02;;;;;;;9.84;53.05;100305.97;6387330;23;20013;-84
2023/04/14 00:49:24;;;;;;;0.20;0.20;;;;;;;9.86;52.83;100306.81;6382075;23;20002;-85
2023/04/14 00:51:55;;;;;;;0.30;0.30;;;;;;;9.80;52.40;100306.13;6372116;23;20418;-85
2023/04/14 00:54:27;;;;;;;0.25;0.25;;;;;;;9.77;52.14;100313.19;6371858;23;20016;-85
2023/04/14 00:56:57;;;;;;;0.20;0.20;;;;;;;9.77;52.56;100307.97;6394998;23;20533;-86
2023/04/14 00:59:28;;;;;;;0.40;0.40;;;;;;;9.72;53.31;100315.06;6372426;23;20008;-85
2023/04/14 01:01:59;;;;;;;0.45;0.45;;;;;;;9.64;53.53;100317.06;6369014;23;20017;-84
2023/04/14 01:04:30;;;;;;;0.70;0.70;;;;;;;9.64;53.09;100322.31;6372009;23;20069;-85
2023/04/14 01:07:01;;;;;;;0.73;0.73;;;;;;;9.57;53.79;100333.88;6370559;23;20028;-85
2023/04/14 01:09:31;;;;;;;0.50;0.50;;;;;;;9.59;53.42;100339.94;6409482;23;20013;-87
2023/04/14 01:12:14;;;;;;;0.30;0.30;;;;;;;9.56;52.95;100334.78;6405787;23;20041;-84
2023/04/14 01:14:48;;;;;;;0.50;0.50;;;;;;;9.53;52.57;100334.88;6380505;23;20016;-86
2023/04/14 01:17:27;;;;;;;;;;;;;;;9.45;52.43;100333.34;6417070;23;20020;-85
2023/04/14 01:20:07;;;;;;;1.10;0.73;;;;;;;9.48;53.15;100334.13;6398772;23;19923;-85
2023/04/14 01:22:43;;;;;;;0.55;0.55;;;;;;;9.42;52.57;100340.44;6395856;23;20005;-86
2023/04/14 01:25:25;;;;;;;0.55;0.55;;;;;;;9.31;52.85;100339.88;6396131;23;20033;-86
2023/04/14 01:28:30;;;;;;;1.00;1.00;;;;;;;9.27;52.82;100339.09;6394041;23;20017;-85
2023/04/14 01:31:34;;;;;;;0.40;0.40;;;;;;;9.28;53.24;100332.97;6383218;23;20009;-86
2023/04/14 01:34:24;;;;;;;0.20;0.20;;;;;;;9.26;53.23;100345.22;6351103;23;20021;-85
2023/04/14 01:37:05;;;;;;;0.60;0.60;;;;;;;9.17;53.16;100345.47;6383350;23;20016;-84
2023/04/14 01:39:40;;;;;;;4.15;3.03;;;;;;;9.15;53.86;100342.91;6390014;23;20000;-85
2023/04/14 01:42:16;;;;;;;0.32;0.32;;;;;;;9.08;53.39;100336.13;6381875;23;20072;-87
2023/04/14 01:44:50;;;;;;;0.30;0.30;;;;;;;9.12;53.27;100343.84;6376370;23;20019;-85
2023/04/14 01:47:23;;;;;;;0.47;0.47;;;;;;;9.12;53.78;100350.84;6370963;23;20012;-85
2023/04/14 01:49:55;;;;;;;0.20;0.20;;;;;;;9.06;53.24;100346.63;6372973;23;20008;-85
2023/04/14 01:52:29;;;;;;;0.40;0.40;;;;;;;9.00;54.01;100344.16;6399784;23;20440;-85
2023/04/14 01:55:04;;;;;;;2.28;1.98;;;;;;;8.96;53.80;100350.41;6372231;23;20013;-86
2023/04/14 01:57:35;;;;;;;0.30;0.30;;;;;;;8.97;53.43;100345.13;6371731;23;20017;-85
2023/04/14 02:00:10;;;;;;;17.00;0.95;;;;;;;8.94;53.49;100349.56;6372722;23;20005;-85
2023/04/14 02:02:42;;;;;;;0.30;0.30;;;;;;;8.92;54.41;100351.38;6369150;23;20017;-85
2023/04/14 02:05:15;;;;;;;0.65;0.63;;;;;;;8.87;53.84;100355.88;6372419;23;20009;-85
2023/04/14 02:07:48;;;;;;;0.50;0.50;;;;;;;8.90;54.36;100351.41;6370635;23;20017;-86
2023/04/14 02:10:20;;;;;;;0.38;0.38;;;;;;;8.81;54.61;100347.25;6406613;23;20009;-85
2023/04/14 02:12:56;;;;;;;0.60;0.60;;;;;;;8.81;54.55;100349.03;6368491;23;20017;-84
2023/04/14 02:15:29;;;;;;;0.30;0.30;;;;;;;8.78;54.41;100355.22;6369015;23;20015;-86
2023/04/14 02:18:03;;;;;;;0.88;0.88;;;;;;;8.76;54.12;100358.75;6396994;23;20335;-85
2023/04/14 02:20:36;;;;;;;0.82;0.75;;;;;;;8.70;54.08;100359.78;6405393;23;20013;-85
2023/04/14 02:23:07;;;;;;;0.68;0.68;;;;;;;8.65;54.19;100356.38;6394833;23;20084;-86
2023/04/14 02:25:40;;;;;;;1.38;1.15;;;;;;;8.64;54.58;100354.66;6373248;23;20005;-87
2023/04/14 02:28:21;;;;;;;0.30;0.30;;;;;;;8.66;53.86;100358.13;6372899;23;20021;-87
2023/04/14 02:30:55;;;;;;;7.15;1.08;;;;;;;8.62;54.25;100362.56;6373024;23;20041;-87
2023/04/14 02:33:32;;;;;;;0.95;0.95;;;;;;;8.61;54.38;100365.22;6370542;23;20060;-86
2023/04/14 02:36:12;;;;;;;0.35;0.35;;;;;;;8.54;54.64;100369.75;6402775;23;19993;-86
2023/04/14 02:38:51;;;;;;;0.50;0.50;;;;;;;8.57;54.93;100376.66;6374819;23;20044;-87
2023/04/14 02:41:25;;;;;;;0.30;0.30;;;;;;;8.55;54.20;100373.22;6374564;23;20008;-86
2023/04/14 02:44:13;;;;;;;0.20;0.20;;;;;;;8.50;54.75;100374.19;6376590;23;20005;-86
2023/04/14 02:47:07;;;;;;;0.30;0.30;;;;;;;8.45;54.48;100376.03;6387751;23;20005;-87
2023/04/14 02:49:46;;;;;;;0.35;0.35;;;;;;;8.44;54.08;100376.94;6388186;23;20001;-86
2023/04/14 02:52:19;;;;;;;0.30;0.30;;;;;;;8.46;54.47;100382.97;6377271;23;20024;-86
2023/04/14 02:54:51;;;;;;;0.20;0.20;;;;;;;8.46;54.12;100382.97;6384571;23;20095;-87
2023/04/14 02:57:23;;;;;;;0.20;0.20;;;;;;;8.41;55.02;100390.06;6381899;23;20024;-87
2023/04/14 02:59:54;;;;;;;2.72;0.70;;;;;;;8.40;54.64;100396.19;6380742;23;20039;-87
2023/04/14 03:02:26;;;;;;;1.15;1.15;;;;;;;8.38;55.44;100391.88;6380076;23;20020;-87
2023/04/14 03:04:57;;;;;;;0.30;0.30;;;;;;;8.35;55.21;100395.44;6382187;23;20047;-86
2023/04/14 03:07:28;;;;;;;0.70;0.70;;;;;;;8.33;55.24;100390.25;6380866;23;20021;-87
2023/04/14 03:10:00;;;;;;;0.38;0.38;;;;;;;8.35;55.67;100391.06;6386514;23;20013;-84
2023/04/14 03:12:33;;;;;;;0.52;0.52;;;;;;;8.31;55.41;100391.16;6379323;23;20024;-87
2023/04/14 03:15:06;;;;;;;0.30;0.30;;;;;;;8.28;54.91;100388.63;6383334;23;20112;-85
2023/04/14 03:17:38;;;;;;;0.38;0.38;;;;;;;8.31;54.90;100383.31;6381315;23;20016;-87
2023/04/14 03:20:11;;;;;;;0.57;0.57;;;;;;;8.27;55.21;100381.69;6375928;23;20016;-86
2023/04/14 03:22:43;;;;;;;0.50;0.50;;;;;;;8.25;55.29;100380.84;6376636;23;20025;-86
2023/04/14 03:25:14;;;;;;;0.30;0.30;;;;;;;8.19;55.59;100380.09;6381999;23;20009;-86
2023/04/14 03:27:46;;;;;;;0.88;0.88;;;;;;;8.17;55.31;100381.88;6382093;23;20324;-87
2023/04/14 03:30:17;;;;;;;0.30;0.30;;;;;;;8.14;55.31;100387.16;6381544;23;20021;-86
2023/04/14 03:32:48;;;;;;;0.30;0.30;;;;;;;8.08;56.17;100387.31;6375868;23;20021;-87
2023/04/14 03:35:21;;;;;;;0.80;0.80;;;;;;;8.03;56.60;100389.19;6372715;23;20028;-87
2023/04/14 03:37:58;;;;;;;0.50;0.50;;;;;;;8.03;55.35;100390.03;6372157;23;20421;-86
2023/04/14 03:40:32;;;;;;;0.40;0.40;;;;;;;8.09;55.39;100383.81;6373954;23;20001;-87
2023/04/14 03:43:04;;;;;;;;;;;;;;;8.07;56.03;100387.34;6373334;23;20028;-86
2023/04/14 03:45:38;;;;;;;0.40;0.40;;;;;;;8.05;55.96;100387.41;6407430;23;19915;-87
2023/04/14 03:48:11;;;;;;;1.15;1.10;;;;;;;8.06;55.63;100378.63;6393499;23;20048;-87
2023/04/14 03:50:44;;;;;;;0.70;0.70;;;;;;;8.04;56.17;100376.06;6380219;23;20104;-87
2023/04/14 03:53:17;;;;;;;0.50;0.50;;;;;;;8.04;56.52;100375.22;6377522;23;20715;-87
2023/04/14 03:55:51;;;;;;;0.30;0.30;;;;;;;8.04;55.55;100376.06;6378199;23;20013;-85
2023/04/14 03:58:24;;;;;;;0.50;0.50;;;;;;;8.00;55.62;100370.94;6401587;23;20235;-89
2023/04/14 04:00:55;;;;;;;0.30;0.30;;;;;;;7.92;56.05;100376.34;6378510;23;20009;-87
2023/04/14 04:03:27;;;;;;;0.73;0.73;;;;;;;7.96;55.83;100371.94;6376455;23;20040;-87
2023/04/14 04:05:58;;;;;;;24.00;0.90;;;;;;;7.94;55.61;100378.94;6378509;23;20001;-88
2023/04/14 04:08:30;;;;;;;0.80;0.80;;;;;;;7.83;56.48;100380.00;6378990;23;20072;-87
2023/04/14 04:11:05;;;;;;;0.57;0.38;;;;;;;7.79;56.79;100380.97;6381651;23;20442;-87
2023/04/14 04:13:37;;;;;;;1.95;0.80;;;;;;;7.82;56.21;100386.13;6383261;23;20055;-87
2023/04/14 04:16:09;;;;;;;0.30;0.30;;;;;;;7.82;56.81;100395.72;6387100;23;20001;-86
2023/04/14 04:18:45;;;;;;;0.52;0.52;;;;;;;7.80;56.19;100393.16;6385667;23;20009;-87
2023/04/14 04:21:18;;;;;;;0.40;0.40;;;;;;;7.80;56.22;100390.53;6418562;23;20001;-87
2023/04/14 04:23:53;;;;;;;0.55;0.55;;;;;;;7.76;56.22;100388.88;6383496;23;20032;-87
2023/04/14 04:26:24;;;;;;;0.50;0.50;;;;;;;7.75;55.94;100394.13;6380373;23;20025;-86
2023/04/14 04:28:59;;;;;;;0.28;0.28;;;;;;;7.75;55.72;100381.91;6381562;23;20081;-87
2023/04/14 04:31:31;;;;;;;0.30;0.30;;;;;;;7.69;55.75;100389.88;6377358;23;20043;-86
2023/04/14 04:34:03;;;;;;;0.30;0.30;;;;;;;7.70;56.37;100391.63;6377986;23;20016;-85
2023/04/14 04:36:35;;;;;;;0.55;0.55;;;;;;;7.67;56.01;100389.94;6399787;23;20047;-85
2023/04/14 04:39:05;;;;;;;0.60;0.60;;;;;;;7.65;56.37;100388.22;6386471;23;20009;-84
2023/04/14 04:41:36;;;;;;;0.30;0.30;;;;;;;7.63;55.81;100395.25;6372527;23;20033;-85
2023/04/14 04:44:06;;;;;;;0.40;0.40;;;;;;;7.57;56.19;100394.47;6374115;23;20061;-85
2023/04/14 04:46:49;;;;;;;0.30;0.30;;;;;;;7.57;55.56;100396.22;6360067;23;20009;-83
2023/04/14 04:49:21;;;;;;;5.18;1.75;;;;;;;7.61;56.81;100403.09;6401279;23;20013;-83
2023/04/14 04:51:51;;;;;;;1.17;1.15;;;;;;;7.56;56.65;100400.56;6413360;23;20024;-85
2023/04/14 04:54:22;;;;;;;0.45;0.45;;;;;;;7.50;56.80;100400.69;6380202;23;20032;-85
2023/04/14 04:56:52;;;;;;;0.65;0.65;;;;;;;7.48;56.56;100401.63;6407778;23;20013;-84
2023/04/14 04:59:23;;;;;;;0.73;0.73;;;;;;;7.48;56.19;100399.84;6385675;23;19997;-84
2023/04/14 05:01:54;;;;;;;0.20;0.20;;;;;;;7.46;55.78;100403.38;6371065;23;20733;-85
2023/04/14 05:04:25;;;;;;;0.85;0.85;;;;;;;7.48;56.61;100404.22;6372950;23;20274;-84
2023/04/14 05:06:56;;;;;;;0.50;0.50;;;;;;;7.46;56.55;100403.38;6371027;23;20013;-85
2023/04/14 05:09:26;;;;;;;0.20;0.20;;;;;;;7.45;56.72;100407.75;6373389;23;20020;-85
2023/04/14 05:11:57;;;;;;;10.25;1.15;;;;;;;7.40;56.46;100406.97;6377360;23;20013;-85
2023/04/14 05:14:27;;;;;;;0.30;0.30;;;;;;;7.39;56.84;100397.44;6408819;23;20012;-82
2023/04/14 05:16:58;;;;;;;0.95;0.95;;;;;;;7.37;57.07;100404.44;6374683;23;20078;-85
2023/04/14 05:19:28;;;;;;;0.25;0.25;;;;;;;7.39;56.64;100402.66;6375673;23;20028;-85
2023/04/14 05:21:59;;;;;;;0.73;0.73;;;;;;;7.38;56.91;100421.81;6373102;23;20051;-84
2023/04/14 05:24:29;;;;;;;0.82;0.80;;;;;;;7.38;57.04;100421.81;6373532;23;20463;-85
2023/04/14 05:27:00;;;;;;;0.20;0.20;;;;;;;7.32;56.88;100421.91;6396030;23;20017;-85
2023/04/14 05:29:31;;;;;;;0.30;0.30;;;;;;;7.32;57.08;100422.78;6383182;23;20016;-84
2023/04/14 05:32:01;;;;;;;0.25;0.25;;;;;;;7.31;56.49;100417.63;6367840;23;20017;-84
2023/04/14 05:34:32;;;;;;;0.20;0.20;;;;;;;7.24;56.31;100415.09;6347308;23;20016;-86
2023/04/14 05:37:02;;;;;;;0.30;0.30;;;;;;;7.14;56.58;100421.38;6377332;23;20069;-85
2023/04/14 05:39:33;;;;;;;0.22;0.22;;;;;;;7.15;57.11;100420.47;6370628;23;20025;-84
2023/04/14 05:42:04;;;;;;;0.90;0.88;;;;;;;7.20;56.71;100425.63;6369836;23;20028;-85
2023/04/14 05:44:34;;;;;;;0.70;0.70;;;;;;;7.22;57.10;100418.63;6370117;23;20009;-83
2023/04/14 05:47:05;;;;;;;0.82;0.82;;;;;;;7.21;57.13;100419.50;6369672;23;20013;-84
2023/04/14 05:49:35;;;;;;;3.15;1.88;;;;;;;7.20;57.30;100429.09;6370258;23;20035;-85
2023/04/14 05:52:06;;;;;;;0.73;0.52;;;;;;;7.20;57.11;100425.63;6370024;23;20016;-84
2023/04/14 05:54:36;;;;;;;1.95;1.85;;;;;;;7.20;57.50;100433.44;6370838;23;20084;-84
2023/04/14 05:57:07;;;;;;;1.15;1.10;;;;;;;7.18;58.05;100424.81;6366206;23;20017;-85
2023/04/14 05:59:37;;;;;;;0.77;0.77;;;;;;;7.18;57.58;100417.81;6373170;23;20019;-83
2023/04/14 06:02:08;;;;;;;0.38;0.38;;;;;;;7.21;57.70;100428.22;6391203;23;20069;-84
2023/04/14 06:04:38;;;;;;;0.20;0.20;;;;;;;7.19;57.29;100427.38;6342465;23;20035;-84
2023/04/14 06:07:09;;;;;;;0.30;0.30;;;;;;;7.19;57.39;100427.38;6370549;23;20073;-85
2023/04/14 06:09:41;;;;;;;0.60;0.60;;;;;;;7.20;57.52;100423.00;6366950;23;20009;-84
2023/04/14 06:12:12;;;;;;;0.52;0.52;;;;;;;7.20;57.45;100416.06;6363965;23;20096;-84
2023/04/14 06:14:43;;;;;;;0.40;0.40;;;;;;;7.18;57.68;100412.59;6403286;23;20040;-84
2023/04/14 06:17:13;;;;;;;1.20;1.13;;;;;;;7.16;57.90;100414.38;6364816;23;20706;-83
2023/04/14 06:19:46;;;;;;;0.30;0.30;;;;;;;7.20;57.63;100413.44;6401558;23;20001;-84
2023/04/14 06:22:20;;;;;;;5.07;2.10;;;;;;;7.23;57.57;100408.16;6415205;23;20283;-84
2023/04/14 06:24:50;;;;;;;0.55;0.55;;;;;;;7.25;57.14;100410.75;6367674;23;20025;-83
2023/04/14 06:27:21;;;;;;;1.55;1.05;;;;;;;7.31;57.01;100412.41;6367127;23;20052;-85
2023/04/14 06:29:51;;;;;;;0.30;0.30;;;;;;;7.33;58.48;100407.97;6365783;23;20016;-83
2023/04/14 06:32:22;;;;;;;0.90;0.90;;;;;;;7.33;58.02;100410.59;6362831;23;20021;-84
2023/04/14 06:34:52;;;;;;;1.17;1.17;;;;;;;7.36;58.60;100406.16;6367218;23;20036;-84
2023/04/14 06:37:23;;;;;;;0.30;0.30;;;;;;;7.36;57.95;100407.94;6391891;23;20064;-84
2023/04/14 06:39:53;;;;;;;0.63;0.63;;;;;;;7.38;57.63;100409.63;6379916;23;20012;-84
2023/04/14 06:42:24;;;;;;;0.40;0.40;;;;;;;7.43;58.10;100406.94;6394683;23;20013;-84
2023/04/14 06:44:54;;;;;;;0.40;0.40;;;;;;;7.41;58.26;100403.47;6367868;23;20023;-85
2023/04/14 06:47:25;;;;;;;1.40;1.08;;;;;;;7.44;58.09;100408.66;6365312;23;20017;-85
2023/04/14 06:49:56;;;;;;;0.47;0.47;;;;;;;7.49;57.76;100409.41;6402681;23;20005;-84
2023/04/14 06:52:26;;;;;;;0.22;0.22;;;;;;;7.52;57.86;100404.16;6363819;23;20013;-84
2023/04/14 06:54:56;;;;;;;0.30;0.30;;;;;;;7.55;57.81;100404.09;6366686;23;20009;-85
2023/04/14 06:57:27;;;;;;;0.40;0.40;;;;;;;7.58;60.38;100403.16;6396061;23;20029;-84
2023/04/14 06:59:57;;;;;;;0.98;0.95;;;;;;;7.57;62.15;100406.66;6402397;23;20009;-85
2023/04/14 07:02:28;;;;;;;5.38;0.75;;;;;;;7.59;59.82;100401.41;6364090;23;20020;-84
2023/04/14 07:04:59;;;;;;;2.00;0.93;;;;;;;7.64;59.50;100397.81;6377848;23;20009;-84
2023/04/14 07:07:34;;;;;;;0.30;0.30;;;;;;;7.64;60.11;100395.19;6389657;23;20052;-85
2023/04/14 07:10:05;;;;;;;0.30;0.30;;;;;;;7.68;60.41;100389.03;6366813;23;20084;-84
2023/04/14 07:12:36;;;;;;;0.30;0.30;;;;;;;7.62;61.99;100388.31;6367176;23;20075;-84
2023/04/14 07:15:06;;;;;;;0.30;0.30;;;;;;;7.75;60.57;100389.75;6367686;23;20011;-84
2023/04/14 07:17:37;;;;;;;0.40;0.40;;;;;;;7.65;63.48;100383.00;6369357;23;20033;-84
2023/04/14 07:20:08;;;;;;;2.10;0.85;;;;;;;7.74;62.25;100382.81;6376124;23;20021;-85
2023/04/14 07:22:39;;;;;;;0.20;0.20;;;;;;;7.86;60.81;100384.31;6367420;23;20021;-84
2023/04/14 07:25:09;;;;;;;0.30;0.30;;;;;;;7.82;60.96;100383.50;6368667;23;20013;-85
2023/04/14 07:27:40;;;;;;;0.28;0.28;;;;;;;7.79;63.98;100383.59;6364265;23;20053;-85
2023/04/14 07:30:11;;;;;;;0.30;0.30;;;;;;;7.87;62.28;100380.81;6376874;23;20001;-84
2023/04/14 07:32:41;;;;;;;0.43;0.43;;;;;;;7.97;60.70;100378.88;6391559;23;20017;-81
2023/04/14 07:35:12;;;;;;;0.20;0.20;;;;;;;8.03;61.94;100379.56;6395987;23;20126;-85
2023/04/14 07:37:43;;;;;;;0.30;0.30;;;;;;;8.01;63.30;100370.06;6420886;23;20024;-85
2023/04/14 07:40:13;;;;;;;1.30;0.82;;;;;;;8.01;62.75;100370.94;6407384;23;19997;-86
2023/04/14 07:42:44;;;;;;;0.35;0.35;;;;;;;8.07;61.74;100369.91;6385569;23;20021;-83
2023/04/14 07:45:14;;;;;;;0.38;0.30;;;;;;;8.15;62.62;100375.81;6373159;23;20037;-84
2023/04/14 07:47:45;;;;;;;0.30;0.30;;;;;;;8.07;64.29;100374.28;6375011;23;20013;-84
2023/04/14 07:50:15;;;;;;;22.88;1.52;;;;;;;8.10;64.27;100369.84;6374377;23;20622;-84
2023/04/14 07:52:45;;;;;;;0.30;0.30;;;;;;;8.14;64.23;100376.72;6370487;23;20042;-84
2023/04/14 07:55:17;;;;;;;0.30;0.30;;;;;;;8.23;63.28;100370.44;6371915;23;20017;-85
2023/04/14 07:58:12;;;;;;;0.57;0.57;;;;;;;8.29;63.69;100369.44;6346598;23;20268;-86
2023/04/14 08:00:42;;;;;;;1.30;0.77;;;;;;;8.30;64.24;100368.56;6397838;23;20019;-84
2023/04/14 08:03:12;;;;;;;0.30;0.30;;;;;;;8.37;63.43;100366.63;6371753;23;20040;-84
2023/04/14 08:05:43;;;;;;;0.35;0.35;;;;;;;8.42;63.68;100365.63;6350644;23;20069;-85
2023/04/14 08:08:14;;;;;;;8.57;1.42;;;;;;;8.49;63.36;100353.31;6374315;23;20411;-85
2023/04/14 08:10:44;;;;;;;0.85;0.85;;;;;;;8.49;63.05;100351.53;6375742;23;20444;-85
2023/04/14 08:13:15;;;;;;;1.92;1.35;;;;;;;8.56;63.04;100354.00;6376767;23;20049;-84
2023/04/14 08:15:45;;;;;;;0.75;0.75;;;;;;;8.59;61.95;100354.81;6421642;23;20005;-84
2023/04/14 08:18:16;;;;;;;0.55;0.55;;;;;;;8.67;63.47;100349.38;6374224;23;20016;-86
2023/04/14 08:20:47;;;;;;;0.88;0.88;;;;;;;8.68;63.53;100351.09;6375501;23;20050;-83
2023/04/14 08:23:18;;;;;;;5.82;1.08;;;;;;;8.73;63.44;100348.38;6371814;23;20012;-86
2023/04/14 08:25:48;;;;;;;0.30;0.30;;;;;;;8.78;63.41;100347.34;6373025;23;20008;-84
2023/04/14 08:28:19;;;;;;;0.30;0.30;;;;;;;8.84;63.02;100346.34;6396625;23;20013;-84
2023/04/14 08:30:50;;;;;;;0.55;0.55;;;;;;;8.86;63.23;100349.75;6372924;23;20009;-85
2023/04/14 08:33:20;;;;;;;0.30;0.30;;;;;;;8.96;61.71;100346.00;6347115;23;20072;-85
2023/04/14 08:35:51;;;;;;;0.30;0.30;;;;;;;8.96;61.00;100337.31;6349282;23;20282;-85
2023/04/14 08:38:21;;;;;;;1.23;1.15;;;;;;;9.05;61.54;100347.50;6371287;23;20009;-84
2023/04/14 08:40:55;;;;;;;0.32;0.32;;;;;;;9.09;61.37;100349.16;6369460;23;20403;-84
2023/04/14 08:43:25;;;;;;;1.02;1.02;;;;;;;9.10;61.81;100348.25;6364885;23;20013;-84
2023/04/14 08:45:57;;;;;;;0.88;0.70;;;;;;;9.21;60.85;100344.50;6369999;23;20012;-83
2023/04/14 08:48:29;;;;;;;0.30;0.30;;;;;;;9.44;60.78;100341.22;6392286;23;20078;-84
2023/04/14 08:51:13;;;;;;;3.10;0.73;;;;;;;9.41;60.13;100338.72;6403296;23;20075;-84
2023/04/14 08:53:47;;;;;;;1.17;0.85;;;;;;;9.37;60.39;100335.31;6399558;23;20043;-84
2023/04/14 08:56:20;;;;;;;0.32;0.32;;;;;;;9.47;60.43;100332.41;6368653;23;20009;-83
2023/04/14 08:58:52;;;;;;;0.30;0.30;;;;;;;9.52;61.70;100331.38;6403873;23;20008;-84
2023/04/14 09:01:23;;;;;;;7.13;0.85;;;;;;;9.62;62.28;100329.38;6399442;23;20114;-84
2023/04/14 09:03:55;;;;;;;7.70;1.13;;;;;;;9.66;61.67;100330.97;6366638;23;20036;-83
2023/04/14 09:06:26;;;;;;;0.95;0.68;;;;;;;9.76;61.32;100321.09;6364584;23;20009;-83
2023/04/14 09:08:59;;;;;;;0.50;0.50;;;;;;;9.79;61.85;100314.91;6392820;23;20009;-84
2023/04/14 09:11:30;;;;;;;0.30;0.30;;;;;;;9.88;61.84;100330.34;6365716;23;20012;-83
2023/04/14 09:14:00;;;;;;;0.40;0.40;;;;;;;9.85;61.71;100330.44;6403802;23;20309;-83
2023/04/14 09:16:32;;;;;;;0.47;0.47;;;;;;;9.89;62.03;100329.44;6398425;23;20006;-84
2023/04/14 09:19:03;;;;;;;0.70;0.70;;;;;;;9.91;61.64;100325.00;6368249;23;20044;-84
2023/04/14 09:21:34;;;;;;;0.60;0.60;;;;;;;10.08;60.95;100327.97;6401042;23;20071;-84
2023/04/14 09:24:05;;;;;;;0.85;0.85;;;;;;;10.10;61.93;100321.81;6367107;23;20025;-84
2023/04/14 09:26:36;;;;;;;0.55;0.55;;;;;;;10.14;60.88;100319.06;6366954;23;20025;-84
2023/04/14 09:29:07;;;;;;;0.60;0.60;;;;;;;10.16;60.98;100313.75;6370957;23;20001;-84
2023/04/14 09:31:37;;;;;;;0.55;0.55;;;;;;;10.29;61.29;100325.56;6380282;23;20075;-85
2023/04/14 09:34:20;;;;;;;0.88;0.88;;;;;;;10.23;60.09;100317.91;6391601;23;20009;-85
2023/04/14 09:37:08;;;;;;;3.13;1.33;;;;;;;10.30;59.62;100310.69;6374684;23;20036;-85
2023/04/14 09:39:47;;;;;;;0.65;0.40;;;;;;;10.31;59.26;100308.00;6392903;23;20001;-85
2023/04/14 09:42:18;;;;;;;0.30;0.30;;;;;;;10.47;59.31;100318.03;6396426;23;20024;-85
2023/04/14 09:44:53;;;;;;;0.73;0.73;;;;;;;10.46;58.09;100313.69;6392858;23;20012;-85
2023/04/14 09:47:24;;;;;;;0.30;0.30;;;;;;;10.48;58.60;100304.88;6371101;23;20032;-85
2023/04/14 09:49:56;;;;;;;0.40;0.40;;;;;;;10.63;59.13;100306.13;6402977;23;20494;-84
2023/04/14 09:52:43;;;;;;;2.70;2.25;;;;;;;10.65;58.94;100306.94;6362848;23;20020;-84
2023/04/14 09:55:15;;;;;;;0.68;0.68;;;;;;;10.78;59.39;100311.78;6367561;23;20013;-84
2023/04/14 09:57:50;;;;;;;0.30;0.30;;;;;;;10.81;58.68;100307.28;6393761;23;20017;-84
2023/04/14 10:00:22;;;;;;;0.30;0.30;;;;;;;10.92;57.91;100308.63;6342242;23;20059;-84
2023/04/14 10:02:56;;;;;;;0.28;0.28;;;;;;;11.00;58.41;100306.59;6365059;23;20048;-84
2023/04/14 10:05:28;;;;;;;0.40;0.40;;;;;;;11.01;57.78;100300.44;6367526;23;20005;-84
2023/04/14 10:08:03;;;;;;;1.75;1.52;;;;;;;11.05;57.12;100299.44;6368326;23;20226;-83
2023/04/14 10:10:33;;;;;;;0.50;0.50;;;;;;;11.02;56.67;100296.91;6402047;23;20008;-84
2023/04/14 10:13:04;;;;;;;1.40;1.13;;;;;;;11.09;56.02;100289.69;6364401;23;20363;-84
2023/04/14 10:15:34;;;;;;;5.57;0.93;;;;;;;11.13;56.35;100288.63;6367705;23;20017;-85
2023/04/14 10:18:05;;;;;;;0.90;0.70;;;;;;;11.12;56.33;100295.69;6341362;23;20028;-83
2023/04/14 10:20:37;;;;;;;1.20;1.20;;;;;;;11.20;57.32;100271.75;6367080;23;20017;-84
2023/04/14 10:23:07;;;;;;;0.30;0.30;;;;;;;11.25;56.82;100277.69;6366089;23;20028;-84
2023/04/14 10:25:38;;;;;;;0.98;0.95;;;;;;;11.25;56.73;100285.59;6371878;23;20016;-84
2023/04/14 10:28:09;;;;;;;0.50;0.50;;;;;;;11.24;56.87;100277.78;6403307;23;20092;-84
2023/04/14 10:30:40;;;;;;;2.10;1.38;;;;;;;11.24;56.45;100276.00;6371258;23;20005;-84
2023/04/14 10:33:11;;;;;;;0.63;0.52;;;;;;;11.29;56.65;100279.28;6365782;23;20024;-83
2023/04/14 10:35:47;;;;;;;0.35;0.35;;;;;;;11.37;56.22;100278.13;6402295;23;20014;-84
2023/04/14 10:38:17;;;;;;;0.60;0.55;;;;;;;11.45;56.02;100270.81;6366842;23;20013;-86
2023/04/14 10:40:51;;;;;;;0.95;0.95;;;;;;;11.68;56.46;100264.69;6367792;23;20013;-82
2023/04/14 10:43:26;;;;;;;0.28;0.28;;;;;;;11.74;56.34;100261.81;6366080;23;20071;-82
2023/04/14 10:45:59;;;;;;;0.30;0.30;;;;;;;11.81;56.23;100257.19;6368723;23;20672;-83
2023/04/14 10:48:37;;;;;;;0.30;0.30;;;;;;;11.68;55.14;100261.22;6366563;23;20108;-85
2023/04/14 10:51:09;;;;;;;0.57;0.57;;;;;;;11.71;54.57;100263.72;6366162;23;20102;-85
2023/04/14 10:53:54;;;;;;;0.52;0.50;;;;;;;11.83;54.16;100250.09;6368448;23;20009;-84
2023/04/14 10:56:24;;;;;;;3.35;1.55;;;;;;;11.90;55.64;100245.47;6365278;23;20053;-83
2023/04/14 10:58:57;;;;;;;0.88;0.88;;;;;;;12.07;55.98;100250.06;6368948;23;20005;-85
2023/04/14 11:01:32;;;;;;;0.20;0.20;;;;;;;12.17;55.50;100237.38;6375850;23;20099;-86
2023/04/14 11:04:17;;;;;;;2.30;1.13;;;;;;;12.23;54.87;100238.00;6376446;23;20015;-85
2023/04/14 11:06:50;;;;;;;0.30;0.30;;;;;;;12.18;53.08;100229.44;6408320;23;20116;-84
2023/04/14 11:09:33;;;;;;;1.25;0.90;;;;;;;12.17;52.12;100216.34;6372353;23;20005;-85
2023/04/14 11:12:27;;;;;;;0.40;0.40;;;;;;;12.20;51.04;100218.84;6402652;23;20525;-84
2023/04/14 11:15:02;;;;;;;0.60;0.60;;;;;;;12.34;52.86;100215.66;6372623;23;20016;-85
2023/04/14 11:17:37;;;;;;;0.60;0.60;;;;;;;12.41;50.41;100217.09;6368623;23;20021;-85
2023/04/14 11:20:15;;;;;;;0.30;0.30;;;;;;;12.44;48.64;100211.69;6368940;23;20029;-85
2023/04/14 11:22:49;;;;;;;1.48;0.70;;;;;;;12.57;49.31;100204.97;6370154;23;20044;-85
2023/04/14 11:25:20;;;;;;;1.00;0.95;;;;;;;12.62;51.25;100207.41;6372452;23;20013;-84
2023/04/14 11:27:51;;;;;;;0.85;0.70;;;;;;;12.74;51.11;100206.00;6399461;23;20017;-83
2023/04/14 11:30:21;;;;;;;0.25;0.25;;;;;;;12.76;51.32;100204.19;6373816;23;20008;-85
2023/04/14 11:32:56;;;;;;;0.80;0.80;;;;;;;12.83;49.70;100199.47;6373338;23;20041;-86
2023/04/14 11:35:27;;;;;;;0.30;0.30;;;;;;;13.03;48.60;100201.19;6410449;23;20072;-85
2023/04/14 11:37:59;;;;;;;0.20;0.20;;;;;;;13.08;50.52;100207.13;6374277;23;20021;-88
2023/04/14 11:40:30;;;;;;;1.30;0.63;;;;;;;13.28;49.56;100200.94;6375348;23;20016;-86
2023/04/14 11:43:00;;;;;;;0.63;0.63;;;;;;;13.43;49.67;100203.81;6374929;23;20017;-84
2023/04/14 11:45:31;;;;;;;0.30;0.30;;;;;;;13.36;49.24;100193.53;6411481;23;20035;-85
2023/04/14 11:48:03;;;;;;;0.32;0.32;;;;;;;13.42;49.38;100187.16;6378339;23;20020;-86
2023/04/14 11:50:37;;;;;;;0.50;0.50;;;;;;;13.54;47.87;100190.97;6375648;23;20007;-85
2023/04/14 11:53:10;;;;;;;0.20;0.20;;;;;;;13.56;48.51;100183.84;6373311;23;20009;-86
2023/04/14 11:55:46;;;;;;;0.37;0.37;;;;;;;13.70;48.97;100185.81;6374363;23;20474;-83
2023/04/14 11:58:24;;;;;;;0.30;0.30;;;;;;;14.22;41.56;100178.88;6409544;23;20032;-86